createdAt,value
2023-04-15T00:01:12.285Z,1.88
2023-04-15T00:03:39.938Z,1.60
2023-04-15T00:06:07.836Z,1.80
2023-04-15T00:08:34.861Z,3.58
2023-04-15T00:11:05.755Z,2.00
2023-04-15T00:13:34.307Z,3.25
2023-04-15T00:16:01.786Z,2.55
2023-04-15T00:18:29.930Z,1.90
2023-04-15T00:20:57.185Z,2.20
2023-04-15T00:23:24.439Z,2.97
2023-04-15T00:25:52.096Z,2.65
2023-04-15T00:28:19.305Z,1.75
2023-04-15T00:30:46.529Z,2.28
2023-04-15T00:33:14.179Z,2.20
2023-04-15T00:35:41.580Z,1.92
2023-04-15T00:38:09.778Z,2.30
2023-04-15T00:40:37.799Z,2.17
2023-04-15T00:43:05.753Z,1.98
2023-04-15T00:45:33.586Z,1.83
2023-04-15T00:48:00.928Z,2.00
2023-04-15T00:50:28.154Z,2.40
2023-04-15T00:52:55.530Z,2.15
2023-04-15T00:55:22.727Z,2.60
2023-04-15T00:57:50.827Z,2.38
2023-04-15T01:00:18.274Z,3.00
2023-04-15T01:02:47.481Z,2.50
2023-04-15T01:05:17.459Z,3.00
2023-04-15T01:07:44.543Z,3.20
2023-04-15T01:10:11.979Z,3.92
2023-04-15T01:12:39.819Z,3.22
2023-04-15T01:15:08.277Z,3.25
2023-04-15T01:17:35.612Z,3.03
2023-04-15T01:20:03.176Z,3.72
2023-04-15T01:22:31.770Z,3.95
2023-04-15T01:25:09.853Z,4.30
2023-04-15T01:27:42.521Z,2.95
2023-04-15T01:30:10.766Z,3.03
2023-04-15T01:32:38.301Z,4.20
2023-04-15T01:35:24.508Z,3.10
2023-04-15T01:37:52.670Z,3.10
2023-04-15T01:40:21.524Z,3.38
2023-04-15T01:42:49.943Z,3.72
2023-04-15T01:45:18.410Z,4.75
2023-04-15T01:47:46.671Z,3.75
2023-04-15T01:50:15.615Z,3.85
2023-04-15T01:52:43.940Z,3.70
2023-04-15T01:55:12.634Z,4.50
2023-04-15T01:57:41.511Z,4.07
2023-04-15T02:00:10.208Z,4.80
2023-04-15T02:02:44.929Z,5.25
2023-04-15T02:05:13.435Z,4.90
2023-04-15T02:07:43.732Z,5.65
2023-04-15T02:10:13.712Z,6.65
2023-04-15T02:12:42.232Z,5.43
2023-04-15T02:15:10.921Z,6.35
2023-04-15T02:17:39.355Z,7.50
2023-04-15T02:20:10.827Z,7.65
2023-04-15T02:22:39.039Z,5.63
2023-04-15T02:25:09.302Z,7.22
2023-04-15T02:27:38.346Z,6.53
2023-04-15T02:30:07.544Z,6.05
2023-04-15T02:32:38.274Z,6.13
2023-04-15T02:35:09.034Z,6.60
2023-04-15T02:37:43.821Z,5.85
2023-04-15T02:40:13.566Z,6.35
2023-04-15T02:42:42.791Z,6.25
2023-04-15T02:45:13.989Z,6.22
2023-04-15T02:47:44.046Z,5.78
2023-04-15T02:50:13.680Z,10.27
2023-04-15T02:52:44.583Z,6.05
2023-04-15T02:55:13.485Z,7.13
2023-04-15T02:57:41.978Z,6.13
2023-04-15T03:00:12.483Z,6.45
2023-04-15T03:02:46.988Z,6.30
2023-04-15T03:05:15.682Z,5.88
2023-04-15T03:07:50.410Z,6.72
2023-04-15T03:10:19.682Z,6.20
2023-04-15T03:12:48.876Z,5.90
2023-04-15T03:15:22.635Z,6.18
2023-04-15T03:17:53.682Z,6.13
2023-04-15T03:20:22.096Z,6.55
2023-04-15T03:22:50.756Z,6.40
2023-04-15T03:25:21.115Z,6.30
2023-04-15T03:27:49.405Z,6.53
2023-04-15T03:30:18.513Z,7.43
2023-04-15T03:32:47.498Z,7.70
2023-04-15T03:35:16.528Z,6.82
2023-04-15T03:37:44.871Z,7.03
2023-04-15T03:40:13.369Z,6.80
2023-04-15T03:42:41.657Z,7.15
2023-04-15T03:45:10.431Z,7.43
2023-04-15T03:47:38.857Z,7.68
2023-04-15T03:50:07.692Z,8.43
2023-04-15T03:52:36.001Z,8.70
2023-04-15T03:55:04.519Z,8.60
2023-04-15T03:57:33.513Z,10.43
2023-04-15T04:00:01.737Z,8.00
2023-04-15T04:02:40.284Z,7.70
2023-04-15T04:05:09.309Z,7.22
2023-04-15T04:07:37.610Z,8.93
2023-04-15T04:10:06.626Z,7.47
2023-04-15T04:12:34.779Z,8.57
2023-04-15T04:15:03.293Z,7.93
2023-04-15T04:17:31.661Z,7.90
2023-04-15T04:20:00.007Z,9.52
2023-04-15T04:22:28.505Z,11.20
2023-04-15T04:24:57.155Z,7.63
2023-04-15T04:27:26.375Z,7.65
2023-04-15T04:29:54.830Z,8.48
2023-04-15T04:32:23.057Z,8.38
2023-04-15T04:34:51.520Z,7.90
2023-04-15T04:37:19.827Z,8.43
2023-04-15T04:39:48.120Z,9.10
2023-04-15T04:42:16.898Z,8.43
2023-04-15T04:44:45.255Z,8.23
2023-04-15T04:47:14.202Z,9.95
2023-04-15T04:49:42.441Z,11.65
2023-04-15T04:52:11.807Z,9.15
2023-04-15T04:54:40.089Z,8.07
2023-04-15T04:57:08.443Z,7.93
2023-04-15T04:59:36.741Z,10.13
2023-04-15T05:02:05.495Z,10.95
2023-04-15T05:04:34.534Z,13.65
2023-04-15T05:07:02.850Z,16.48
2023-04-15T05:09:32.684Z,17.52
2023-04-15T05:12:01.530Z,13.93
2023-04-15T05:14:29.976Z,15.57
2023-04-15T05:16:58.550Z,18.98
2023-04-15T05:19:27.265Z,15.70
2023-04-15T05:21:55.706Z,17.98
2023-04-15T05:24:24.153Z,19.90
2023-04-15T05:26:52.476Z,17.60
2023-04-15T05:29:21.000Z,18.50
2023-04-15T05:31:49.914Z,18.05
2023-04-15T05:34:18.228Z,18.27
2023-04-15T05:36:46.504Z,21.02
2023-04-15T05:39:14.794Z,16.55
2023-04-15T05:41:43.096Z,17.75
2023-04-15T05:44:11.777Z,20.35
2023-04-15T05:46:40.191Z,16.20
2023-04-15T05:49:08.574Z,18.05
2023-04-15T05:51:37.184Z,17.58
2023-04-15T05:54:05.985Z,14.57
2023-04-15T05:56:34.287Z,11.60
2023-04-15T05:59:02.648Z,17.17
2023-04-15T06:01:31.275Z,28.92
2023-04-15T06:03:59.500Z,15.45
2023-04-15T06:06:27.916Z,15.82
2023-04-15T06:08:56.192Z,19.92
2023-04-15T06:11:25.394Z,17.85
2023-04-15T06:13:53.615Z,13.85
2023-04-15T06:16:23.833Z,18.27
2023-04-15T06:18:52.158Z,14.32
2023-04-15T06:21:20.667Z,18.65
2023-04-15T06:23:48.983Z,15.13
2023-04-15T06:26:17.334Z,17.88
2023-04-15T06:28:46.042Z,16.30
2023-04-15T06:31:14.834Z,12.27
2023-04-15T06:33:43.125Z,17.15
2023-04-15T06:36:11.458Z,16.85
2023-04-15T06:38:39.884Z,17.98
2023-04-15T06:41:08.328Z,18.23
2023-04-15T06:43:36.729Z,16.98
2023-04-15T06:46:05.278Z,14.90
2023-04-15T06:48:33.528Z,16.58
2023-04-15T06:51:02.000Z,16.90
2023-04-15T06:53:30.390Z,14.80
2023-04-15T06:55:58.623Z,18.35
2023-04-15T06:58:26.978Z,18.73
2023-04-15T07:00:55.394Z,19.45
2023-04-15T07:03:23.676Z,16.27
2023-04-15T07:05:52.165Z,13.65
2023-04-15T07:08:21.419Z,16.80
2023-04-15T07:10:49.762Z,16.27
2023-04-15T07:13:17.956Z,21.23
2023-04-15T07:15:46.588Z,15.77
2023-04-15T07:18:14.857Z,18.15
2023-04-15T07:20:43.767Z,24.13
2023-04-15T07:23:12.246Z,15.15
2023-04-15T07:25:41.295Z,15.82
2023-04-15T07:28:09.512Z,18.92
2023-04-15T07:30:38.489Z,16.17
2023-04-15T07:33:07.314Z,23.05
2023-04-15T07:35:35.742Z,23.58
2023-04-15T07:38:04.173Z,19.23
2023-04-15T07:40:33.281Z,17.58
2023-04-15T07:43:01.830Z,15.27
2023-04-15T07:45:30.439Z,16.73
2023-04-15T07:47:58.791Z,13.65
2023-04-15T07:50:28.762Z,20.10
2023-04-15T07:52:57.466Z,14.57
2023-04-15T07:55:27.204Z,15.48
2023-04-15T07:57:57.346Z,14.25
2023-04-15T08:00:26.962Z,15.55
2023-04-15T08:02:57.649Z,15.70
2023-04-15T08:05:26.568Z,17.30
2023-04-15T08:07:54.966Z,16.05
2023-04-15T08:10:23.499Z,12.70
2023-04-15T08:12:54.403Z,13.73
2023-04-15T08:15:22.694Z,14.15
2023-04-15T08:17:51.304Z,16.90
2023-04-15T08:20:19.942Z,15.35
2023-04-15T08:22:52.756Z,24.23
2023-04-15T08:25:21.488Z,15.93
2023-04-15T08:27:49.869Z,12.98
2023-04-15T08:30:18.817Z,18.75
2023-04-15T08:32:47.643Z,11.57
2023-04-15T08:35:16.450Z,11.68
2023-04-15T08:37:44.737Z,13.55
2023-04-15T08:40:13.757Z,10.88
2023-04-15T08:42:45.896Z,13.10
2023-04-15T08:45:14.665Z,14.98
2023-04-15T08:47:44.800Z,12.90
2023-04-15T08:50:15.433Z,13.00
2023-04-15T08:52:43.884Z,14.63
2023-04-15T08:55:13.817Z,18.05
2023-04-15T08:57:42.146Z,17.45
2023-04-15T09:00:11.095Z,13.40
2023-04-15T09:02:39.878Z,11.38
2023-04-15T09:05:08.832Z,11.18
2023-04-15T09:07:37.404Z,8.18
2023-04-15T09:10:06.739Z,9.55
2023-04-15T09:12:38.263Z,12.00
2023-04-15T09:15:08.977Z,8.10
2023-04-15T09:17:43.970Z,8.75
2023-04-15T09:22:43.902Z,11.73
2023-04-15T09:25:28.048Z,6.15
2023-04-15T09:28:02.011Z,9.63
2023-04-15T09:30:30.651Z,8.57
2023-04-15T09:33:04.238Z,8.43
2023-04-15T09:35:32.600Z,6.60
2023-04-15T09:38:04.186Z,11.82
2023-04-15T09:40:36.409Z,7.25
2023-04-15T09:43:06.248Z,9.57
2023-04-15T09:45:36.014Z,10.85
2023-04-15T09:48:27.170Z,9.80
2023-04-15T09:50:59.359Z,11.75
2023-04-15T09:53:29.839Z,12.43
2023-04-15T09:56:02.640Z,8.23
2023-04-15T09:58:33.708Z,12.50
2023-04-15T10:01:05.136Z,8.55
2023-04-15T10:03:39.390Z,8.88
2023-04-15T10:06:08.248Z,9.73
2023-04-15T10:08:36.594Z,9.20
2023-04-15T10:11:06.280Z,9.73
2023-04-15T10:13:36.566Z,9.88
2023-04-15T10:16:07.167Z,10.32
2023-04-15T10:18:38.434Z,7.65
2023-04-15T10:21:08.868Z,7.57
2023-04-15T10:23:38.725Z,10.02
2023-04-15T10:26:08.547Z,9.45
2023-04-15T10:28:37.220Z,7.40
2023-04-15T10:31:07.392Z,10.23
2023-04-15T10:33:36.398Z,11.10
2023-04-15T10:36:05.330Z,9.55
2023-04-15T10:38:38.281Z,9.90
2023-04-15T10:41:18.740Z,13.82
2023-04-15T10:43:56.242Z,17.55
2023-04-15T10:46:37.775Z,14.15
2023-04-15T10:49:24.489Z,13.80
2023-04-15T10:51:58.220Z,13.85
2023-04-15T10:54:26.415Z,9.70
2023-04-15T10:57:01.891Z,8.68
2023-04-15T10:59:51.082Z,8.02
2023-04-15T11:02:19.654Z,13.23
2023-04-15T11:04:58.818Z,11.18
2023-04-15T11:07:35.148Z,10.10
2023-04-15T11:10:25.663Z,9.70
2023-04-15T11:12:58.220Z,7.32
2023-04-15T11:15:33.269Z,7.47
2023-04-15T11:18:13.567Z,4.75
2023-04-15T11:20:47.335Z,8.05
2023-04-15T11:23:28.957Z,8.05
2023-04-15T11:25:58.200Z,7.90
2023-04-15T11:28:30.994Z,6.75
2023-04-15T11:31:06.056Z,9.02
2023-04-15T11:33:34.561Z,8.18
2023-04-15T11:36:04.324Z,5.43
2023-04-15T11:38:34.517Z,8.40
2023-04-15T11:41:02.811Z,6.43
2023-04-15T11:43:32.637Z,9.35
2023-04-15T11:46:02.561Z,4.72
2023-04-15T11:48:34.351Z,5.68
2023-04-15T11:51:08.159Z,4.25
2023-04-15T11:53:47.400Z,6.30
2023-04-15T11:56:26.476Z,5.57
2023-04-15T11:59:00.929Z,6.75
2023-04-15T12:01:36.959Z,8.30
2023-04-15T12:04:15.883Z,5.85
2023-04-15T12:06:43.618Z,6.47
2023-04-15T12:09:15.551Z,6.80
2023-04-15T12:11:48.401Z,9.20
2023-04-15T12:14:32.650Z,5.65
2023-04-15T12:17:02.984Z,6.72
2023-04-15T12:19:39.671Z,8.07
2023-04-15T12:22:13.046Z,7.20
2023-04-15T12:24:41.449Z,5.53
2023-04-15T12:27:11.542Z,6.63
2023-04-15T12:29:40.931Z,7.95
2023-04-15T12:32:13.000Z,4.93
2023-04-15T12:34:42.644Z,5.60
2023-04-15T12:37:11.993Z,7.78
2023-04-15T12:39:41.636Z,5.75
2023-04-15T12:42:09.733Z,5.60
2023-04-15T12:44:37.717Z,6.63
2023-04-15T12:47:05.526Z,7.40
2023-04-15T12:49:34.547Z,5.25
2023-04-15T12:52:02.935Z,7.53
2023-04-15T12:54:31.880Z,8.77
2023-04-15T12:56:59.767Z,5.40
2023-04-15T12:59:27.260Z,7.40
2023-04-15T13:01:55.656Z,5.40
2023-04-15T13:04:23.440Z,7.68
2023-04-15T13:06:50.899Z,6.45
2023-04-15T13:09:18.160Z,8.13
2023-04-15T13:11:45.468Z,7.78
2023-04-15T13:14:14.083Z,6.38
2023-04-15T13:16:41.707Z,6.88
2023-04-15T13:19:09.146Z,7.82
2023-04-15T13:21:38.549Z,7.72
2023-04-15T13:24:07.480Z,10.50
2023-04-15T13:26:35.158Z,7.78
2023-04-15T13:29:02.359Z,10.43
2023-04-15T13:31:29.596Z,10.10
2023-04-15T13:33:57.930Z,9.07
2023-04-15T13:36:25.306Z,10.50
2023-04-15T13:38:52.429Z,8.00
2023-04-15T13:41:21.411Z,7.95
2023-04-15T13:43:48.591Z,9.10
2023-04-15T13:46:16.334Z,10.93
2023-04-15T13:48:43.741Z,12.60
2023-04-15T13:51:11.156Z,12.32
2023-04-15T13:53:39.600Z,9.32
2023-04-15T13:56:11.013Z,9.50
2023-04-15T13:58:38.454Z,12.93
2023-04-15T14:01:07.030Z,8.52
2023-04-15T14:03:36.945Z,8.18
2023-04-15T14:06:05.745Z,7.68
2023-04-15T14:08:33.497Z,11.55
2023-04-15T14:11:00.904Z,7.55
2023-04-15T14:13:28.179Z,9.40
2023-04-15T14:15:55.589Z,10.25
2023-04-15T14:18:23.066Z,8.63
2023-04-15T14:20:50.193Z,8.98
2023-04-15T14:23:17.264Z,10.98
2023-04-15T14:25:46.711Z,7.13
2023-04-15T14:28:15.947Z,12.13
2023-04-15T14:30:43.276Z,13.23
2023-04-15T14:33:10.807Z,10.57
2023-04-15T14:35:38.224Z,8.43
2023-04-15T14:38:06.268Z,9.18
2023-04-15T14:40:34.106Z,10.35
2023-04-15T14:43:01.377Z,8.13
2023-04-15T14:45:28.708Z,9.23
2023-04-15T14:47:56.299Z,7.85
2023-04-15T14:50:23.506Z,7.53
2023-04-15T14:52:50.635Z,8.32
2023-04-15T14:55:17.996Z,8.50
2023-04-15T14:57:45.081Z,9.18
2023-04-15T15:00:15.799Z,10.85
2023-04-15T15:02:44.012Z,10.20
2023-04-15T15:05:12.225Z,10.60
2023-04-15T15:07:43.103Z,9.70
2023-04-15T15:10:10.635Z,8.85
2023-04-15T15:12:37.773Z,8.73
2023-04-15T15:15:15.814Z,9.55
2023-04-15T15:17:54.450Z,10.20
2023-04-15T15:20:22.087Z,6.90
2023-04-15T15:22:49.540Z,7.97
2023-04-15T15:25:16.800Z,8.60
2023-04-15T15:27:44.373Z,8.82
2023-04-15T15:30:12.861Z,11.70
2023-04-15T15:32:41.165Z,7.50
2023-04-15T15:35:10.231Z,10.63
2023-04-15T15:37:38.225Z,9.52
2023-04-15T15:40:06.057Z,9.65
2023-04-15T15:42:33.892Z,11.00
2023-04-15T15:45:01.301Z,12.80
2023-04-15T15:47:28.458Z,11.40
2023-04-15T15:49:55.723Z,10.85
2023-04-15T15:52:22.882Z,8.85
2023-04-15T15:54:50.194Z,12.68
2023-04-15T15:57:17.289Z,9.13
2023-04-15T15:59:44.833Z,11.60
2023-04-15T16:02:14.140Z,10.68
2023-04-15T16:04:43.351Z,9.38
2023-04-15T16:07:11.847Z,9.70
2023-04-15T16:09:41.109Z,8.35
2023-04-15T16:12:08.591Z,7.90
2023-04-15T16:14:36.558Z,8.10
2023-04-15T16:17:03.736Z,9.25
2023-04-15T16:19:31.249Z,9.82
2023-04-15T16:22:00.174Z,9.57
2023-04-15T16:24:28.393Z,7.93
2023-04-15T16:26:58.771Z,8.48
2023-04-15T16:29:26.628Z,8.32
2023-04-15T16:31:55.116Z,9.02
2023-04-15T16:34:22.170Z,5.65
2023-04-15T16:36:49.465Z,7.72
2023-04-15T16:39:17.131Z,8.90
2023-04-15T16:41:44.228Z,6.88
2023-04-15T16:44:11.336Z,11.55
2023-04-15T16:46:40.764Z,7.05
2023-04-15T16:49:08.170Z,8.30
2023-04-15T16:51:35.437Z,7.82
2023-04-15T16:54:02.559Z,9.80
2023-04-15T16:56:29.729Z,9.10
2023-04-15T16:58:56.890Z,6.82
2023-04-15T17:01:24.064Z,8.40
2023-04-15T17:03:54.026Z,7.00
2023-04-15T17:06:22.599Z,7.68
2023-04-15T17:08:49.793Z,7.28
2023-04-15T17:11:19.641Z,8.23
2023-04-15T17:13:49.106Z,8.55
2023-04-15T17:16:16.627Z,6.75
2023-04-15T17:18:47.608Z,8.02
2023-04-15T17:21:26.305Z,8.77
2023-04-15T17:23:59.758Z,6.80
2023-04-15T17:26:37.171Z,7.47
2023-04-15T17:29:06.131Z,8.30
2023-04-15T17:31:43.801Z,8.38
2023-04-15T17:34:50.240Z,7.68
2023-04-15T17:37:38.099Z,8.13
2023-04-15T17:40:25.094Z,7.05
2023-04-15T17:43:12.087Z,7.47
2023-04-15T17:45:59.658Z,8.50
2023-04-15T17:48:47.519Z,12.60
2023-04-15T17:51:34.462Z,9.02
2023-04-15T17:54:27.566Z,11.07
2023-04-15T17:57:15.039Z,8.38
2023-04-15T18:00:02.430Z,9.93
2023-04-15T18:02:59.530Z,6.50
2023-04-15T18:05:47.108Z,11.07
2023-04-15T18:08:34.267Z,7.93
2023-04-15T18:11:21.331Z,11.63
2023-04-15T18:14:08.343Z,7.75
2023-04-15T18:16:55.547Z,8.82
2023-04-15T18:19:43.701Z,12.63
2023-04-15T18:22:15.791Z,12.15
2023-04-15T18:24:43.135Z,9.02
2023-04-15T18:27:10.605Z,7.60
2023-04-15T18:29:37.942Z,10.77
2023-04-15T18:32:05.430Z,8.38
2023-04-15T18:34:33.664Z,8.30
2023-04-15T18:37:01.574Z,7.85
2023-04-15T18:39:29.476Z,10.93
2023-04-15T18:41:59.638Z,12.05
2023-04-15T18:44:26.942Z,9.77
2023-04-15T18:46:54.436Z,7.45
2023-04-15T18:49:21.786Z,8.23
2023-04-15T18:51:48.928Z,7.70
2023-04-15T18:54:16.191Z,8.18
2023-04-15T18:56:43.350Z,7.38
2023-04-15T18:59:28.526Z,8.18
2023-04-15T19:01:59.909Z,9.13
2023-04-15T19:04:29.341Z,7.55
2023-04-15T19:06:57.131Z,6.68
2023-04-15T19:09:24.303Z,7.85
2023-04-15T19:11:51.459Z,9.60
2023-04-15T19:14:18.709Z,8.05
2023-04-15T19:16:46.802Z,7.05
2023-04-15T19:19:17.333Z,7.07
2023-04-15T19:21:46.793Z,7.03
2023-04-15T19:24:14.265Z,6.97
2023-04-15T19:26:41.333Z,8.38
2023-04-15T19:29:08.593Z,9.98
2023-04-15T19:31:35.785Z,6.60
2023-04-15T19:34:02.840Z,6.07
2023-04-15T19:36:30.577Z,8.80
2023-04-15T19:38:59.204Z,9.18
2023-04-15T19:41:26.755Z,8.82
2023-04-15T19:43:53.875Z,7.50
2023-04-15T19:46:21.498Z,9.73
2023-04-15T19:48:48.631Z,8.38
2023-04-15T19:51:15.980Z,7.85
2023-04-15T19:53:43.708Z,14.98
2023-04-15T19:56:11.091Z,9.48
2023-04-15T19:58:38.566Z,8.35
2023-04-15T20:01:05.920Z,11.55
2023-04-15T20:03:33.292Z,8.93
2023-04-15T20:06:00.758Z,10.43
2023-04-15T20:08:27.963Z,8.93
2023-04-15T20:10:55.332Z,7.18
2023-04-15T20:13:22.337Z,8.27
2023-04-15T20:15:50.233Z,9.20
2023-04-15T20:18:17.863Z,7.53
2023-04-15T20:20:45.052Z,9.70
2023-04-15T20:23:12.387Z,8.75
2023-04-15T20:25:39.709Z,8.27
2023-04-15T20:28:06.868Z,7.82
2023-04-15T20:30:34.352Z,8.90
2023-04-15T20:33:01.760Z,10.65
2023-04-15T20:35:31.187Z,7.75
2023-04-15T20:37:59.889Z,7.68
2023-04-15T20:40:27.059Z,8.18
2023-04-15T20:42:54.466Z,6.80
2023-04-15T20:45:22.270Z,7.60
2023-04-15T20:47:49.591Z,7.43
2023-04-15T20:50:16.710Z,7.78
2023-04-15T20:52:43.822Z,7.35
2023-04-15T20:55:11.060Z,7.45
2023-04-15T20:57:38.256Z,8.18
2023-04-15T21:00:06.292Z,11.27
2023-04-15T21:02:37.092Z,6.32
2023-04-15T21:05:04.596Z,12.52
2023-04-15T21:07:31.910Z,7.43
2023-04-15T21:09:59.183Z,6.68
2023-04-15T21:12:26.441Z,6.43
2023-04-15T21:14:53.575Z,7.13
2023-04-15T21:17:22.789Z,6.30
2023-04-15T21:19:51.072Z,5.70
2023-04-15T21:22:18.481Z,8.07
2023-04-15T21:24:45.590Z,8.00
2023-04-15T21:27:12.642Z,6.00
2023-04-15T21:29:40.608Z,6.78
2023-04-15T21:32:07.966Z,8.02
2023-04-15T21:34:35.137Z,5.43
2023-04-15T21:37:02.482Z,6.60
2023-04-15T21:39:29.651Z,5.90
2023-04-15T21:41:58.009Z,8.30
2023-04-15T21:44:26.181Z,8.93
2023-04-15T21:46:53.393Z,7.60
2023-04-15T21:49:20.794Z,9.90
2023-04-15T21:51:48.414Z,8.32
2023-04-15T21:54:15.808Z,7.32
2023-04-15T21:56:43.214Z,8.55
2023-04-15T21:59:11.222Z,6.43
2023-04-15T22:01:38.473Z,6.85
2023-04-15T22:04:07.555Z,7.78
2023-04-15T22:06:35.058Z,7.28
2023-04-15T22:09:02.192Z,6.35
2023-04-15T22:11:30.953Z,5.32
2023-04-15T22:13:59.470Z,6.75
2023-04-15T22:16:27.328Z,7.28
2023-04-15T22:18:55.396Z,6.20
2023-04-15T22:21:22.936Z,5.43
2023-04-15T22:23:51.257Z,5.03
2023-04-15T22:26:19.001Z,8.13
2023-04-15T22:28:46.100Z,5.97
2023-04-15T22:31:14.976Z,6.80
2023-04-15T22:33:42.157Z,5.45
2023-04-15T22:36:09.622Z,11.77
2023-04-15T22:38:36.926Z,5.70
2023-04-15T22:41:04.051Z,9.75
2023-04-15T22:43:31.126Z,7.47
2023-04-15T22:45:58.380Z,7.35
2023-04-15T22:48:25.637Z,6.82
2023-04-15T22:50:53.084Z,5.78
2023-04-15T22:53:20.246Z,9.82
2023-04-15T22:55:48.464Z,9.63
2023-04-15T22:58:17.264Z,7.35
2023-04-15T23:00:46.234Z,6.53
2023-04-15T23:03:13.606Z,5.38
2023-04-15T23:05:41.366Z,7.55
2023-04-15T23:08:08.758Z,10.52
2023-04-15T23:10:36.312Z,7.57
2023-04-15T23:13:03.610Z,7.15
2023-04-15T23:15:30.937Z,7.82
2023-04-15T23:17:58.195Z,7.85
2023-04-15T23:20:25.428Z,6.90
2023-04-15T23:22:52.558Z,15.10
2023-04-15T23:25:22.488Z,6.97
2023-04-15T23:27:49.748Z,5.93
2023-04-15T23:30:16.928Z,5.47
2023-04-15T23:32:44.098Z,5.88
2023-04-15T23:35:11.384Z,5.85
2023-04-15T23:37:38.586Z,6.45
2023-04-15T23:40:06.869Z,5.97
2023-04-15T23:42:34.057Z,8.00
2023-04-15T23:45:01.308Z,6.70
2023-04-15T23:47:30.812Z,7.10
2023-04-15T23:49:57.983Z,6.50
2023-04-15T23:52:25.205Z,5.90
2023-04-15T23:54:52.412Z,9.60
2023-04-15T23:57:19.575Z,7.38
2023-04-15T23:59:46.808Z,6.57
